createdAt,value
2023-02-08T00:13:33.987Z,9.60
2023-02-08T00:28:36.989Z,9.03
2023-02-08T00:43:39.499Z,10.40
2023-02-08T00:58:43.040Z,9.03
2023-02-08T01:13:46.528Z,8.93
2023-02-08T01:28:50.143Z,9.83
2023-02-08T01:44:12.596Z,9.83
2023-02-08T01:59:21.294Z,11.07
2023-02-08T02:14:24.286Z,10.40
2023-02-08T02:29:26.675Z,10.70
2023-02-08T02:44:47.548Z,11.33
2023-02-08T02:59:50.615Z,12.00
2023-02-08T03:14:52.936Z,12.10
2023-02-08T03:30:13.726Z,13.03
2023-02-08T03:45:26.586Z,11.83
2023-02-08T04:00:34.035Z,13.53
2023-02-08T04:15:36.452Z,12.70
2023-02-08T04:30:39.290Z,14.40
2023-02-08T04:45:42.074Z,13.27
2023-02-08T05:00:44.888Z,13.20
2023-02-08T05:15:47.185Z,11.97
2023-02-08T05:30:49.688Z,12.43
2023-02-08T05:45:52.198Z,10.80
2023-02-08T06:00:54.586Z,11.03
2023-02-08T06:15:56.986Z,11.90
2023-02-08T06:30:59.763Z,11.73
2023-02-08T06:46:04.872Z,10.10
2023-02-08T07:01:11.108Z,10.43
2023-02-08T07:16:13.557Z,10.37
2023-02-08T07:31:17.518Z,9.53
2023-02-08T07:46:21.867Z,9.97
2023-02-08T08:01:24.626Z,10.17
2023-02-08T08:16:26.974Z,11.17
2023-02-08T08:31:30.793Z,10.23
2023-02-08T08:46:33.198Z,10.20
2023-02-08T09:01:35.934Z,10.80
2023-02-08T09:16:40.138Z,10.10
2023-02-08T09:31:42.872Z,9.80
2023-02-08T09:46:58.674Z,9.23
2023-02-08T10:02:17.141Z,9.47
2023-02-08T10:17:56.231Z,9.27
2023-02-08T10:33:03.387Z,10.50
2023-02-08T10:48:15.731Z,8.67
2023-02-08T11:03:22.747Z,8.53
2023-02-08T11:18:26.526Z,9.50
2023-02-08T11:33:32.154Z,7.33
2023-02-08T11:48:51.391Z,7.80
2023-02-08T12:03:57.626Z,7.43
2023-02-08T12:19:16.332Z,6.33
2023-02-08T12:34:47.971Z,6.73
2023-02-08T12:50:09.163Z,5.97
2023-02-08T13:05:19.286Z,6.73
2023-02-08T13:20:49.709Z,5.07
2023-02-08T13:35:53.617Z,4.00
2023-02-08T13:50:57.097Z,3.57
2023-02-08T14:06:00.245Z,3.20
2023-02-08T14:21:07.431Z,3.10
2023-02-08T14:36:39.446Z,3.00
2023-02-08T14:51:58.083Z,3.33
2023-02-08T15:07:20.006Z,3.23
2023-02-08T15:22:25.796Z,3.40
2023-02-08T15:37:33.946Z,3.00
2023-02-08T15:52:37.159Z,3.43
2023-02-08T16:07:43.509Z,3.40
2023-02-08T16:23:18.478Z,4.23
2023-02-08T16:38:23.364Z,3.67
2023-02-08T16:53:41.367Z,4.03
2023-02-08T17:08:44.163Z,4.97
2023-02-08T17:23:47.411Z,7.77
2023-02-08T17:38:50.397Z,5.57
2023-02-08T17:53:53.096Z,7.77
2023-02-08T18:08:55.789Z,6.10
2023-02-08T18:24:04.823Z,6.80
2023-02-08T18:39:07.304Z,7.37
2023-02-08T18:54:09.700Z,6.87
2023-02-08T19:09:12.277Z,7.20
2023-02-08T19:24:15.373Z,7.27
2023-02-08T19:39:23.917Z,7.27
2023-02-08T19:54:26.763Z,5.43
2023-02-08T20:09:29.232Z,4.53
2023-02-08T20:24:31.560Z,3.90
2023-02-08T20:39:34.943Z,4.70
2023-02-08T20:54:38.265Z,4.73
2023-02-08T21:09:40.800Z,4.77
2023-02-08T21:24:43.158Z,5.20
2023-02-08T21:39:47.430Z,5.27
2023-02-08T21:54:53.420Z,5.10
2023-02-08T22:09:55.900Z,5.27
2023-02-08T22:24:58.615Z,6.30
2023-02-08T22:40:01.414Z,6.93
2023-02-08T22:55:04.745Z,6.97
2023-02-08T23:10:07.565Z,5.90
2023-02-08T23:25:10.226Z,5.50
2023-02-08T23:40:12.859Z,6.07
2023-02-08T23:55:15.240Z,5.07
